createdAt,value
2022-08-15T00:00:09.219Z,21.87
2022-08-15T00:01:10.355Z,20.58
2022-08-15T00:02:33.429Z,22.83
2022-08-15T00:03:10.968Z,20.25
2022-08-15T00:04:10.438Z,21.54
2022-08-15T00:05:10.207Z,20.25
2022-08-15T00:06:30.542Z,22.19
2022-08-15T00:07:10.130Z,21.22
2022-08-15T00:08:50.865Z,20.90
2022-08-15T00:09:10.167Z,18.32
2022-08-15T00:10:59.543Z,20.90
2022-08-15T00:11:19.519Z,21.22
2022-08-15T00:12:10.056Z,23.48
2022-08-15T00:13:14.371Z,20.90
2022-08-15T00:14:14.153Z,21.22
2022-08-15T00:15:10.024Z,20.58
2022-08-15T00:16:09.097Z,19.29
2022-08-15T00:17:10.106Z,20.90
2022-08-15T00:18:08.970Z,21.54
2022-08-15T00:19:08.981Z,20.90
2022-08-15T00:20:09.069Z,20.58
2022-08-15T00:21:10.353Z,23.48
2022-08-15T00:22:18.252Z,21.22
2022-08-15T00:23:09.910Z,18.00
2022-08-15T00:24:20.739Z,15.42
2022-08-15T00:25:09.913Z,20.25
2022-08-15T00:26:23.986Z,18.32
2022-08-15T00:27:10.492Z,20.90
2022-08-15T00:28:10.994Z,19.93
2022-08-15T00:29:08.833Z,18.64
2022-08-15T00:30:08.827Z,20.58
2022-08-15T00:31:10.802Z,20.58
2022-08-15T00:33:03.076Z,24.77
2022-08-15T00:33:21.303Z,18.00
2022-08-15T00:34:38.137Z,22.19
2022-08-15T00:35:09.754Z,23.15
2022-08-15T00:36:52.785Z,20.25
2022-08-15T00:37:09.725Z,19.93
2022-08-15T00:38:11.555Z,20.25
2022-08-15T00:39:08.702Z,20.25
2022-08-15T00:40:17.953Z,19.93
2022-08-15T00:41:09.685Z,20.58
2022-08-15T00:42:08.686Z,20.90
2022-08-15T00:43:09.732Z,19.61
2022-08-15T00:44:09.270Z,19.93
2022-08-15T00:45:13.615Z,20.58
2022-08-15T00:46:13.685Z,20.25
2022-08-15T00:47:09.609Z,21.22
2022-08-15T00:48:08.575Z,21.22
2022-08-15T00:49:12.567Z,20.25
2022-08-15T00:50:33.920Z,20.58
2022-08-15T00:51:09.560Z,19.93
2022-08-15T00:52:27.126Z,21.22
2022-08-15T00:53:09.522Z,20.25
2022-08-15T00:54:08.493Z,19.93
2022-08-15T00:55:08.516Z,20.25
2022-08-15T00:56:08.493Z,20.90
2022-08-15T00:57:10.502Z,21.22
2022-08-15T00:58:08.451Z,19.61
2022-08-15T00:59:09.510Z,19.29
2022-08-15T01:00:08.757Z,19.93
2022-08-15T01:01:08.459Z,20.58
2022-08-15T01:02:22.698Z,19.61
2022-08-15T01:03:14.130Z,17.68
2022-08-15T01:04:17.795Z,20.58
2022-08-15T01:05:16.450Z,19.93
2022-08-15T01:06:09.360Z,17.68
2022-08-15T01:07:08.359Z,20.25
2022-08-15T01:08:08.330Z,21.54
2022-08-15T01:09:12.075Z,20.25
2022-08-15T01:10:24.282Z,17.35
2022-08-15T01:11:09.263Z,20.25
2022-08-15T01:12:08.334Z,17.03
2022-08-15T01:13:19.074Z,20.25
2022-08-15T01:14:56.050Z,22.19
2022-08-15T01:15:09.231Z,19.29
2022-08-15T01:16:08.234Z,19.93
2022-08-15T01:17:10.439Z,18.96
2022-08-15T01:18:34.522Z,17.68
2022-08-15T01:19:13.161Z,18.32
2022-08-15T01:20:08.152Z,19.61
2022-08-15T01:21:08.145Z,19.93
2022-08-15T01:22:08.132Z,18.64
2022-08-15T01:23:08.184Z,16.71
2022-08-15T01:24:15.438Z,19.61
2022-08-15T01:25:26.014Z,17.03
2022-08-15T01:26:38.878Z,17.03
2022-08-15T01:27:09.083Z,19.61
2022-08-15T01:28:08.077Z,20.90
2022-08-15T01:29:08.100Z,22.51
2022-08-15T01:31:00.713Z,18.64
2022-08-15T01:31:09.822Z,17.03
2022-08-15T01:32:08.017Z,18.96
2022-08-15T01:33:08.027Z,19.93
2022-08-15T01:34:13.079Z,20.58
2022-08-15T01:35:08.960Z,21.87
2022-08-15T01:36:32.874Z,22.19
2022-08-15T01:37:08.952Z,21.87
2022-08-15T01:38:07.985Z,18.00
2022-08-15T01:39:08.101Z,21.22
2022-08-15T01:40:08.011Z,18.96
2022-08-15T01:41:13.153Z,19.93
2022-08-15T01:42:08.880Z,19.93
2022-08-15T01:43:07.927Z,18.64
2022-08-15T01:44:30.847Z,17.35
2022-08-15T01:45:08.826Z,16.71
2022-08-15T01:46:07.875Z,19.61
2022-08-15T01:47:12.958Z,19.93
2022-08-15T01:48:20.657Z,19.29
2022-08-15T01:49:08.767Z,19.93
2022-08-15T01:50:11.877Z,18.64
2022-08-15T01:51:07.739Z,19.29
2022-08-15T01:52:57.692Z,17.03
2022-08-15T01:53:09.807Z,21.54
2022-08-15T01:54:09.049Z,18.00
2022-08-15T01:55:07.715Z,19.29
2022-08-15T01:56:33.189Z,16.06
2022-08-15T01:57:08.680Z,19.29
2022-08-15T01:58:08.036Z,20.58
2022-08-15T01:59:07.699Z,19.29
2022-08-15T02:00:18.156Z,19.29
2022-08-15T02:01:08.643Z,17.03
2022-08-15T02:02:39.837Z,16.39
2022-08-15T02:03:08.618Z,18.32
2022-08-15T02:04:07.711Z,19.61
2022-08-15T02:05:07.557Z,22.19
2022-08-15T02:06:07.561Z,22.19
2022-08-15T02:07:08.583Z,19.29
2022-08-15T02:08:35.895Z,18.00
2022-08-15T02:09:17.179Z,17.03
2022-08-15T02:10:21.579Z,16.71
2022-08-15T02:11:16.202Z,19.29
2022-08-15T02:12:19.768Z,19.29
2022-08-15T02:13:15.104Z,18.96
2022-08-15T02:14:38.546Z,19.29
2022-08-15T02:15:08.428Z,19.29
2022-08-15T02:16:07.463Z,19.29
2022-08-15T02:17:07.415Z,19.29
2022-08-15T02:18:07.403Z,19.29
2022-08-15T02:19:12.427Z,20.25
2022-08-15T02:20:23.089Z,19.29
2022-08-15T02:21:08.388Z,16.39
2022-08-15T02:22:07.335Z,18.64
2022-08-15T02:23:08.379Z,19.29
2022-08-15T02:24:20.890Z,18.96
2022-08-15T02:25:08.329Z,18.32
2022-08-15T02:26:10.106Z,16.39
2022-08-15T02:27:07.286Z,16.39
2022-08-15T02:28:34.727Z,17.68
2022-08-15T02:29:08.250Z,18.64
2022-08-15T02:30:07.345Z,19.61
2022-08-15T02:31:07.331Z,18.96
2022-08-15T02:32:07.210Z,17.03
2022-08-15T02:33:07.866Z,18.64
2022-08-15T02:34:11.072Z,18.64
2022-08-15T02:35:07.168Z,20.58
2022-08-15T02:36:07.148Z,18.64
2022-08-15T02:37:09.263Z,20.25
2022-08-15T02:38:19.178Z,18.96
2022-08-15T02:39:08.160Z,19.29
2022-08-15T02:40:46.656Z,18.64
2022-08-15T02:41:08.293Z,18.64
2022-08-15T02:42:10.913Z,19.29
2022-08-15T02:43:07.050Z,19.61
2022-08-15T02:44:07.042Z,21.87
2022-08-15T02:45:07.053Z,21.54
2022-08-15T02:46:28.996Z,17.68
2022-08-15T02:47:08.505Z,18.96
2022-08-15T02:48:27.551Z,18.00
2022-08-15T02:49:08.921Z,18.64
2022-08-15T02:50:06.990Z,18.64
2022-08-15T02:51:06.951Z,18.64
2022-08-15T02:52:06.946Z,18.00
2022-08-15T02:53:07.961Z,16.06
2022-08-15T02:54:36.734Z,20.25
2022-08-15T02:55:07.920Z,19.29
2022-08-15T02:56:06.910Z,18.64
2022-08-15T02:57:06.926Z,22.19
2022-08-15T02:58:06.865Z,15.74
2022-08-15T02:59:10.546Z,18.96
2022-08-15T03:00:18.314Z,18.96
2022-08-15T03:01:15.119Z,21.22
2022-08-15T03:02:07.814Z,15.42
2022-08-15T03:03:07.872Z,15.74
2022-08-15T03:04:27.363Z,18.64
2022-08-15T03:05:07.821Z,17.68
2022-08-15T03:06:06.754Z,15.74
2022-08-15T03:07:07.781Z,18.32
2022-08-15T03:08:06.730Z,15.42
2022-08-15T03:09:06.713Z,18.32
2022-08-15T03:10:06.711Z,18.00
2022-08-15T03:11:06.695Z,18.96
2022-08-15T03:12:21.365Z,18.96
2022-08-15T03:13:07.656Z,17.68
2022-08-15T03:14:06.682Z,19.29
2022-08-15T03:15:07.665Z,19.29
2022-08-15T03:16:06.634Z,18.64
2022-08-15T03:17:08.169Z,22.51
2022-08-15T03:18:06.599Z,18.32
2022-08-15T03:19:06.578Z,19.29
2022-08-15T03:20:06.645Z,19.29
2022-08-15T03:21:06.551Z,18.32
2022-08-15T03:22:06.774Z,21.54
2022-08-15T03:23:06.587Z,17.68
2022-08-15T03:24:06.576Z,18.32
2022-08-15T03:25:06.534Z,21.54
2022-08-15T03:26:26.891Z,20.58
2022-08-15T03:27:07.467Z,17.68
2022-08-15T03:28:16.318Z,17.68
2022-08-15T03:29:07.491Z,21.54
2022-08-15T03:30:07.457Z,17.35
2022-08-15T03:31:07.417Z,18.32
2022-08-15T03:32:06.404Z,14.78
2022-08-15T03:33:06.446Z,15.10
2022-08-15T03:34:06.436Z,18.96
2022-08-15T03:35:09.205Z,20.25
2022-08-15T03:36:06.394Z,19.61
2022-08-15T03:37:07.410Z,18.64
2022-08-15T03:38:06.610Z,17.03
2022-08-15T03:39:06.322Z,19.29
2022-08-15T03:40:11.315Z,18.96
2022-08-15T03:41:07.295Z,14.45
2022-08-15T03:42:06.307Z,20.25
2022-08-15T03:43:11.336Z,20.25
2022-08-15T03:44:07.256Z,15.42
2022-08-15T03:45:07.246Z,17.35
2022-08-15T03:46:06.243Z,18.32
2022-08-15T03:47:06.238Z,18.64
2022-08-15T03:48:06.199Z,18.96
2022-08-15T03:49:10.368Z,18.64
2022-08-15T03:50:22.790Z,18.32
2022-08-15T03:51:07.175Z,17.68
2022-08-15T03:52:06.288Z,17.35
2022-08-15T03:53:06.139Z,15.10
2022-08-15T03:54:06.136Z,15.42
2022-08-15T03:55:15.542Z,16.71
2022-08-15T03:56:07.096Z,18.32
2022-08-15T03:57:06.123Z,19.29
2022-08-15T03:58:06.069Z,18.64
2022-08-15T03:59:06.076Z,17.03
2022-08-15T04:00:07.075Z,14.13
2022-08-15T04:01:06.038Z,18.00
2022-08-15T04:02:06.105Z,18.64
2022-08-15T04:03:06.995Z,18.96
2022-08-15T04:04:06.005Z,23.15
2022-08-15T04:05:05.997Z,17.68
2022-08-15T04:06:07.330Z,18.00
2022-08-15T04:07:05.951Z,21.22
2022-08-15T04:08:06.189Z,17.68
2022-08-15T04:09:13.853Z,18.96
2022-08-15T04:10:06.964Z,15.42
2022-08-15T04:11:06.923Z,18.00
2022-08-15T04:12:05.877Z,21.54
2022-08-15T04:13:06.862Z,15.10
2022-08-15T04:14:05.870Z,18.32
2022-08-15T04:15:05.854Z,21.54
2022-08-15T04:17:03.722Z,18.64
2022-08-15T04:17:13.952Z,20.58
2022-08-15T04:18:41.675Z,20.58
2022-08-15T04:19:10.223Z,17.68
2022-08-15T04:20:05.841Z,17.35
2022-08-15T04:21:06.751Z,18.32
2022-08-15T04:22:06.386Z,21.54
2022-08-15T04:23:05.800Z,20.90
2022-08-15T04:24:26.080Z,17.35
2022-08-15T04:25:12.391Z,18.32
2022-08-15T04:26:08.021Z,21.22
2022-08-15T04:27:05.680Z,14.78
2022-08-15T04:28:06.592Z,14.45
2022-08-15T04:29:08.395Z,18.32
2022-08-15T04:30:05.652Z,20.90
2022-08-15T04:31:06.315Z,17.68
2022-08-15T04:32:05.626Z,21.22
2022-08-15T04:33:18.713Z,8.65
2022-08-15T04:34:47.518Z,19.29
2022-08-15T04:35:06.582Z,22.19
2022-08-15T04:36:05.563Z,18.96
2022-08-15T04:37:06.818Z,17.68
2022-08-15T04:38:06.609Z,18.32
2022-08-15T04:39:05.522Z,15.42
2022-08-15T04:41:18.464Z,16.06
2022-08-15T04:41:18.608Z,18.00
2022-08-15T04:42:06.543Z,16.71
2022-08-15T04:43:05.470Z,18.32
2022-08-15T04:44:05.572Z,20.90
2022-08-15T04:45:05.494Z,14.78
2022-08-15T04:46:06.428Z,22.19
2022-08-15T04:47:06.444Z,16.06
2022-08-15T04:48:05.505Z,21.87
2022-08-15T04:49:11.012Z,15.42
2022-08-15T04:50:06.389Z,14.78
2022-08-15T04:51:05.414Z,20.25
2022-08-15T04:52:05.378Z,15.10
2022-08-15T04:53:05.384Z,15.74
2022-08-15T04:54:05.319Z,18.32
2022-08-15T04:55:05.335Z,18.96
2022-08-15T04:56:05.294Z,15.10
2022-08-15T04:57:06.286Z,18.96
2022-08-15T04:58:43.438Z,18.96
2022-08-15T04:59:08.036Z,18.32
2022-08-15T05:00:06.429Z,14.45
2022-08-15T05:01:05.963Z,18.32
2022-08-15T05:02:53.686Z,21.22
2022-08-15T05:03:07.682Z,19.61
2022-08-15T05:04:05.185Z,19.29
2022-08-15T05:05:06.211Z,21.22
2022-08-15T05:06:30.790Z,18.64
2022-08-15T05:07:07.072Z,18.64
2022-08-15T05:08:05.131Z,15.74
2022-08-15T05:09:06.132Z,19.93
2022-08-15T05:10:11.360Z,18.32
2022-08-15T05:11:06.213Z,18.64
2022-08-15T05:12:09.472Z,15.42
2022-08-15T05:13:06.079Z,15.10
2022-08-15T05:14:05.080Z,18.64
2022-08-15T05:15:06.061Z,21.87
2022-08-15T05:16:05.085Z,18.64
2022-08-15T05:17:05.037Z,15.74
2022-08-15T05:18:05.021Z,17.03
2022-08-15T05:19:09.869Z,19.29
2022-08-15T05:20:05.015Z,19.29
2022-08-15T05:21:04.978Z,22.19
2022-08-15T05:22:04.945Z,19.61
2022-08-15T05:23:06.939Z,18.64
2022-08-15T05:24:04.964Z,16.06
2022-08-15T05:25:05.623Z,19.61
2022-08-15T05:26:04.899Z,18.32
2022-08-15T05:27:05.887Z,19.29
2022-08-15T05:28:30.000Z,16.06
2022-08-15T05:29:05.953Z,18.64
2022-08-15T05:30:04.834Z,19.29
2022-08-15T05:31:13.524Z,18.96
2022-08-15T05:32:05.824Z,16.39
2022-08-15T05:33:04.810Z,17.68
2022-08-15T05:34:04.793Z,17.68
2022-08-15T05:35:04.786Z,15.74
2022-08-15T05:36:04.791Z,18.64
2022-08-15T05:37:04.762Z,22.83
2022-08-15T05:38:22.245Z,23.48
2022-08-15T05:39:05.721Z,21.22
2022-08-15T05:40:08.743Z,17.68
2022-08-15T05:41:04.717Z,23.15
2022-08-15T05:42:12.322Z,24.12
2022-08-15T05:43:05.756Z,19.29
2022-08-15T05:44:38.560Z,19.29
2022-08-15T05:45:05.644Z,18.96
2022-08-15T05:46:04.903Z,21.22
2022-08-15T05:47:04.629Z,19.29
2022-08-15T05:48:05.619Z,23.48
2022-08-15T05:49:05.594Z,23.80
2022-08-15T05:50:04.651Z,16.06
2022-08-15T05:51:04.573Z,21.22
2022-08-15T05:52:05.528Z,20.90
2022-08-15T05:53:05.823Z,19.61
2022-08-15T05:54:05.537Z,23.15
2022-08-15T05:55:04.514Z,17.68
2022-08-15T05:56:04.497Z,19.61
2022-08-15T05:57:04.514Z,19.61
2022-08-15T05:58:37.749Z,19.61
2022-08-15T05:59:05.460Z,18.00
2022-08-15T06:00:07.309Z,15.74
2022-08-15T06:01:06.599Z,20.58
2022-08-15T06:02:36.773Z,18.96
2022-08-15T06:03:06.146Z,19.61
2022-08-15T06:04:04.412Z,24.12
2022-08-15T06:05:04.450Z,16.39
2022-08-15T06:06:04.383Z,22.51
2022-08-15T06:07:05.432Z,17.68
2022-08-15T06:08:09.226Z,19.61
2022-08-15T06:09:05.419Z,20.25
2022-08-15T06:10:04.618Z,21.54
2022-08-15T06:11:05.332Z,19.93
2022-08-15T06:12:22.108Z,20.58
2022-08-15T06:13:05.300Z,20.58
2022-08-15T06:14:04.263Z,20.25
2022-08-15T06:15:05.260Z,24.77
2022-08-15T06:16:40.961Z,20.90
2022-08-15T06:17:05.241Z,19.93
2022-08-15T06:18:04.213Z,19.93
2022-08-15T06:19:04.218Z,17.03
2022-08-15T06:20:04.209Z,21.22
2022-08-15T06:21:05.196Z,16.71
2022-08-15T06:22:04.172Z,21.22
2022-08-15T06:23:04.150Z,20.58
2022-08-15T06:24:08.193Z,24.12
2022-08-15T06:25:04.125Z,16.71
2022-08-15T06:26:04.108Z,18.00
2022-08-15T06:27:07.145Z,20.90
2022-08-15T06:28:51.018Z,20.58
2022-08-15T06:29:05.162Z,20.90
2022-08-15T06:30:04.045Z,23.48
2022-08-15T06:31:04.055Z,24.44
2022-08-15T06:32:04.087Z,17.35
2022-08-15T06:33:04.073Z,18.64
2022-08-15T06:34:05.122Z,16.39
2022-08-15T06:35:03.991Z,17.35
2022-08-15T06:36:03.976Z,20.90
2022-08-15T06:37:04.005Z,23.15
2022-08-15T06:38:31.171Z,21.54
2022-08-15T06:39:04.942Z,20.90
2022-08-15T06:40:04.231Z,21.87
2022-08-15T06:41:04.000Z,17.68
2022-08-15T06:42:03.892Z,18.32
2022-08-15T06:43:03.946Z,20.58
2022-08-15T06:44:03.874Z,20.25
2022-08-15T06:45:03.869Z,21.22
2022-08-15T06:46:03.862Z,23.15
2022-08-15T06:47:05.995Z,17.68
2022-08-15T06:48:03.825Z,17.68
2022-08-15T06:49:05.667Z,24.12
2022-08-15T06:50:03.798Z,17.68
2022-08-15T06:51:05.474Z,24.77
2022-08-15T06:52:10.453Z,21.54
2022-08-15T06:53:04.984Z,21.22
2022-08-15T06:54:35.110Z,18.64
2022-08-15T06:55:04.725Z,18.32
2022-08-15T06:56:05.097Z,21.54
2022-08-15T06:57:03.746Z,22.51
2022-08-15T06:58:05.115Z,21.87
2022-08-15T06:59:03.706Z,23.48
2022-08-15T07:00:03.689Z,21.22
2022-08-15T07:01:03.776Z,24.77
2022-08-15T07:02:16.735Z,20.25
2022-08-15T07:03:04.638Z,19.29
2022-08-15T07:04:03.630Z,18.96
2022-08-15T07:05:03.606Z,21.22
2022-08-15T07:06:04.704Z,19.29
2022-08-15T07:07:03.638Z,26.05
2022-08-15T07:08:03.585Z,25.41
2022-08-15T07:09:03.580Z,20.90
2022-08-15T07:10:04.512Z,22.51
2022-08-15T07:11:03.516Z,19.29
2022-08-15T07:12:03.517Z,21.87
2022-08-15T07:13:03.501Z,20.90
2022-08-15T07:14:20.935Z,19.29
2022-08-15T07:15:04.458Z,26.05
2022-08-15T07:16:05.069Z,26.38
2022-08-15T07:17:03.473Z,21.87
2022-08-15T07:18:03.415Z,22.51
2022-08-15T07:19:03.431Z,21.22
2022-08-15T07:20:35.070Z,21.87
2022-08-15T07:21:10.809Z,21.87
2022-08-15T07:22:06.225Z,25.09
2022-08-15T07:23:04.100Z,26.05
2022-08-15T07:24:33.315Z,21.87
2022-08-15T07:25:08.536Z,26.38
2022-08-15T07:26:05.169Z,20.90
2022-08-15T07:27:03.484Z,22.83
2022-08-15T07:28:03.334Z,22.51
2022-08-15T07:29:03.308Z,22.83
2022-08-15T07:30:03.297Z,23.15
2022-08-15T07:31:04.282Z,22.51
2022-08-15T07:32:17.929Z,23.15
2022-08-15T07:33:04.256Z,22.19
2022-08-15T07:34:03.249Z,20.58
2022-08-15T07:35:10.612Z,24.12
2022-08-15T07:36:05.814Z,22.83
2022-08-15T07:37:03.183Z,23.48
2022-08-15T07:38:21.538Z,23.15
2022-08-15T07:39:04.138Z,22.83
2022-08-15T07:40:03.170Z,22.83
2022-08-15T07:41:03.124Z,29.60
2022-08-15T07:42:03.103Z,27.02
2022-08-15T07:43:03.773Z,23.48
2022-08-15T07:44:20.923Z,23.15
2022-08-15T07:45:05.871Z,26.05
2022-08-15T07:46:03.080Z,19.61
2022-08-15T07:47:04.042Z,23.15
2022-08-15T07:49:04.036Z,27.02
2022-08-15T07:50:02.990Z,23.80
2022-08-15T07:51:02.986Z,26.05
2022-08-15T07:52:02.968Z,23.80
2022-08-15T07:53:02.972Z,24.12
2022-08-15T07:54:05.926Z,29.60
2022-08-15T07:55:03.933Z,23.80
2022-08-15T07:56:45.488Z,20.25
2022-08-15T07:57:03.928Z,23.48
2022-08-15T07:58:03.932Z,25.09
2022-08-15T07:59:06.819Z,23.15
2022-08-15T08:02:07.848Z,21.22
2022-08-15T08:03:02.872Z,26.38
2022-08-15T08:04:02.923Z,19.29
2022-08-15T08:05:02.928Z,25.09
2022-08-15T08:06:34.373Z,24.77
2022-08-15T08:07:04.455Z,24.12
2022-08-15T08:08:03.612Z,20.58
2022-08-15T08:09:03.899Z,23.48
2022-08-15T08:10:23.129Z,24.12
2022-08-15T08:11:03.726Z,23.15
2022-08-15T08:12:02.739Z,27.02
2022-08-15T08:13:19.715Z,24.44
2022-08-15T08:14:03.703Z,21.54
2022-08-15T08:15:03.672Z,27.02
2022-08-15T08:16:08.495Z,21.22
2022-08-15T08:17:03.925Z,24.77
2022-08-15T08:18:02.660Z,25.09
2022-08-15T08:19:02.681Z,25.41
2022-08-15T08:20:05.173Z,25.41
2022-08-15T08:21:02.636Z,23.80
2022-08-15T08:22:02.601Z,25.41
2022-08-15T08:23:02.572Z,25.09
2022-08-15T08:24:02.562Z,24.77
2022-08-15T08:25:05.127Z,21.22
2022-08-15T08:26:17.569Z,25.73
2022-08-15T08:27:03.535Z,26.05
2022-08-15T08:28:11.019Z,25.09
2022-08-15T08:29:03.571Z,27.02
2022-08-15T08:30:02.703Z,24.44
2022-08-15T08:31:02.473Z,24.77
2022-08-15T08:32:21.759Z,24.12
2022-08-15T08:33:03.471Z,25.09
2022-08-15T08:34:07.551Z,24.44
2022-08-15T08:35:03.459Z,24.44
2022-08-15T08:36:02.390Z,26.05
2022-08-15T08:37:03.403Z,24.12
2022-08-15T08:38:58.843Z,22.19
2022-08-15T08:39:05.908Z,22.19
2022-08-15T08:40:02.746Z,21.87
2022-08-15T08:41:12.141Z,22.51
2022-08-15T08:42:03.318Z,25.41
2022-08-15T08:43:04.784Z,28.31
2022-08-15T08:44:17.778Z,26.38
2022-08-15T08:45:04.278Z,27.02
2022-08-15T08:46:02.256Z,28.31
2022-08-15T08:47:02.281Z,26.38
2022-08-15T08:48:02.259Z,24.44
2022-08-15T08:49:02.265Z,28.63
2022-08-15T08:50:34.273Z,24.77
2022-08-15T08:51:10.068Z,22.51
2022-08-15T08:52:05.953Z,26.05
2022-08-15T08:53:02.204Z,26.05
2022-08-15T08:54:02.176Z,27.67
2022-08-15T08:55:04.182Z,23.80
2022-08-15T08:56:02.170Z,24.77
2022-08-15T08:57:02.137Z,26.38
2022-08-15T08:58:02.123Z,29.60
2022-08-15T08:59:03.127Z,23.80
2022-08-15T09:00:02.168Z,26.05
2022-08-15T09:01:02.176Z,24.77
2022-08-15T09:02:02.780Z,26.05
2022-08-15T09:03:02.049Z,26.38
2022-08-15T09:04:02.040Z,26.05
2022-08-15T09:05:02.035Z,29.92
2022-08-15T09:06:02.005Z,27.99
2022-08-15T09:07:02.010Z,26.05
2022-08-15T09:08:02.009Z,26.38
2022-08-15T09:09:01.967Z,27.02
2022-08-15T09:10:02.007Z,27.02
2022-08-15T09:11:02.965Z,26.70
2022-08-15T09:12:01.994Z,29.60
2022-08-15T09:13:01.929Z,26.38
2022-08-15T09:14:02.043Z,27.34
2022-08-15T09:15:05.396Z,29.92
2022-08-15T09:16:03.629Z,25.41
2022-08-15T09:17:27.826Z,28.31
2022-08-15T09:18:02.841Z,27.99
2022-08-15T09:19:02.848Z,24.77
2022-08-15T09:20:01.834Z,27.67
2022-08-15T09:21:01.911Z,25.73
2022-08-15T09:22:03.424Z,31.53
2022-08-15T09:23:01.869Z,30.24
2022-08-15T09:24:01.809Z,29.60
2022-08-15T09:25:07.650Z,29.92
2022-08-15T09:26:02.812Z,29.92
2022-08-15T09:27:01.772Z,31.53
2022-08-15T09:28:01.764Z,29.92
2022-08-15T09:29:05.819Z,30.24
2022-08-15T09:30:02.765Z,30.89
2022-08-15T09:31:02.714Z,30.24
2022-08-15T09:32:01.673Z,31.53
2022-08-15T09:33:01.645Z,30.89
2022-08-15T09:34:01.655Z,31.21
2022-08-15T09:35:01.631Z,34.11
2022-08-15T09:36:05.100Z,28.96
2022-08-15T09:37:01.606Z,31.21
2022-08-15T09:38:01.658Z,34.11
2022-08-15T09:39:01.579Z,30.24
2022-08-15T09:40:01.799Z,31.21
2022-08-15T09:41:12.595Z,32.18
2022-08-15T09:42:02.576Z,31.86
2022-08-15T09:43:16.634Z,33.79
2022-08-15T09:44:35.606Z,32.18
2022-08-15T09:45:02.530Z,31.86
2022-08-15T09:46:01.520Z,30.89
2022-08-15T09:47:01.474Z,31.86
2022-08-15T09:48:02.592Z,32.18
2022-08-15T09:49:01.512Z,31.86
2022-08-15T09:50:03.475Z,32.18
2022-08-15T09:51:03.568Z,28.63
2022-08-15T09:52:04.254Z,29.60
2022-08-15T09:53:01.403Z,32.50
2022-08-15T09:54:02.507Z,34.11
2022-08-15T09:55:01.387Z,33.79
2022-08-15T09:56:01.377Z,33.47
2022-08-15T09:57:01.349Z,31.21
2022-08-15T09:58:01.340Z,34.43
2022-08-15T09:59:01.353Z,32.18
2022-08-15T10:00:02.827Z,32.50
2022-08-15T10:01:01.435Z,32.50
2022-08-15T10:02:01.279Z,30.57
2022-08-15T10:03:02.268Z,31.86
2022-08-15T10:04:01.297Z,32.50
2022-08-15T10:05:01.240Z,33.47
2022-08-15T10:06:01.240Z,33.47
2022-08-15T10:07:02.224Z,33.47
2022-08-15T10:08:01.218Z,36.04
2022-08-15T10:09:05.997Z,32.82
2022-08-15T10:10:01.197Z,34.11
2022-08-15T10:11:01.206Z,36.04
2022-08-15T10:12:02.047Z,33.47
2022-08-15T10:13:01.172Z,31.21
2022-08-15T10:14:01.156Z,33.47
2022-08-15T10:15:02.122Z,33.79
2022-08-15T10:16:01.131Z,33.79
2022-08-15T10:17:01.101Z,34.11
2022-08-15T10:18:02.235Z,33.79
2022-08-15T10:19:01.090Z,33.14
2022-08-15T10:20:18.811Z,33.47
2022-08-15T10:21:02.054Z,33.79
2022-08-15T10:22:01.039Z,33.14
2022-08-15T10:23:01.034Z,31.21
2022-08-15T10:24:01.020Z,31.21
2022-08-15T10:25:01.112Z,33.47
2022-08-15T10:26:01.036Z,33.79
2022-08-15T10:27:00.975Z,32.50
2022-08-15T10:28:00.962Z,33.14
2022-08-15T10:29:01.940Z,34.43
2022-08-15T10:30:00.928Z,36.04
2022-08-15T10:31:02.121Z,35.40
2022-08-15T10:32:37.180Z,31.53
2022-08-15T10:33:11.404Z,34.11
2022-08-15T10:34:01.899Z,34.76
2022-08-15T10:35:00.929Z,34.11
2022-08-15T10:36:00.948Z,34.43
2022-08-15T10:37:00.841Z,34.43
2022-08-15T10:38:01.407Z,34.76
2022-08-15T10:39:00.811Z,33.79
2022-08-15T10:40:00.843Z,37.01
2022-08-15T10:41:00.826Z,31.86
2022-08-15T10:42:01.816Z,35.08
2022-08-15T10:43:01.776Z,33.14
2022-08-15T10:44:00.790Z,34.43
2022-08-15T10:45:02.942Z,34.76
2022-08-15T10:46:00.796Z,36.04
2022-08-15T10:47:00.724Z,34.43
2022-08-15T10:48:02.788Z,34.43
2022-08-15T10:49:01.426Z,34.76
2022-08-15T10:50:01.988Z,34.76
2022-08-15T10:51:00.679Z,37.33
2022-08-15T10:52:00.650Z,35.40
2022-08-15T10:53:00.650Z,34.76
2022-08-15T10:54:00.619Z,33.47
2022-08-15T10:55:04.516Z,35.40
2022-08-15T10:56:00.602Z,35.40
2022-08-15T10:57:08.743Z,34.76
2022-08-15T10:58:01.586Z,35.40
2022-08-15T10:59:00.553Z,35.40
2022-08-15T11:00:00.557Z,35.72
2022-08-15T11:01:00.583Z,35.72
2022-08-15T11:02:00.607Z,35.40
2022-08-15T11:03:10.764Z,35.08
2022-08-15T11:04:49.753Z,33.79
2022-08-15T11:05:01.484Z,36.04
2022-08-15T11:06:00.474Z,35.08
2022-08-15T11:07:00.482Z,35.40
2022-08-15T11:08:00.445Z,33.47
2022-08-15T11:09:00.527Z,35.72
2022-08-15T11:10:00.481Z,35.72
2022-08-15T11:11:00.408Z,36.37
2022-08-15T11:12:00.406Z,38.95
2022-08-15T11:13:03.912Z,35.72
2022-08-15T11:14:00.377Z,35.72
2022-08-15T11:15:00.339Z,35.72
2022-08-15T11:16:00.351Z,33.47
2022-08-15T11:17:01.402Z,33.79
2022-08-15T11:18:00.336Z,36.69
2022-08-15T11:19:01.349Z,33.79
2022-08-15T11:20:07.802Z,36.04
2022-08-15T11:21:01.304Z,34.43
2022-08-15T11:22:00.273Z,35.72
2022-08-15T11:23:00.757Z,36.37
2022-08-15T11:25:00.551Z,36.37
2022-08-15T11:26:00.250Z,31.53
2022-08-15T11:27:00.219Z,36.04
2022-08-15T11:28:00.265Z,35.40
2022-08-15T11:29:00.179Z,40.23
2022-08-15T11:30:00.176Z,34.11
2022-08-15T11:31:01.174Z,35.72
2022-08-15T11:32:01.063Z,32.82
2022-08-15T11:33:01.876Z,36.04
2022-08-15T11:34:01.091Z,35.72
2022-08-15T11:35:00.106Z,36.04
2022-08-15T11:36:00.110Z,39.27
2022-08-15T11:37:00.095Z,37.98
2022-08-15T11:38:00.064Z,36.37
2022-08-15T11:39:14.841Z,37.01
2022-08-15T11:40:01.130Z,37.33
2022-08-15T11:41:00.036Z,35.40
2022-08-15T11:42:00.030Z,37.33
2022-08-15T11:43:10.574Z,37.98
2022-08-15T11:44:01.065Z,34.76
2022-08-15T11:44:59.975Z,37.66
2022-08-15T11:46:00.023Z,37.98
2022-08-15T11:46:59.970Z,39.27
2022-08-15T11:47:59.999Z,37.98
2022-08-15T11:49:01.208Z,38.30
2022-08-15T11:49:59.913Z,37.98
2022-08-15T11:50:59.897Z,37.33
2022-08-15T11:52:41.308Z,38.62
2022-08-15T11:53:00.924Z,39.27
2022-08-15T11:53:59.930Z,38.62
2022-08-15T11:54:59.862Z,37.33
2022-08-15T11:55:59.855Z,38.30
2022-08-15T11:57:00.086Z,38.30
2022-08-15T11:58:00.027Z,38.30
2022-08-15T11:59:04.172Z,38.30
2022-08-15T11:59:59.829Z,41.85
2022-08-15T12:01:00.012Z,38.62
2022-08-15T12:01:59.823Z,39.27
2022-08-15T12:03:04.705Z,37.98
2022-08-15T12:04:40.520Z,41.20
2022-08-15T12:05:42.540Z,39.27
2022-08-15T12:06:08.823Z,39.27
2022-08-15T12:07:00.764Z,37.01
2022-08-15T12:07:59.735Z,41.52
2022-08-15T12:08:59.699Z,37.33
2022-08-15T12:09:59.810Z,39.27
2022-08-15T12:10:59.671Z,44.10
2022-08-15T12:11:59.680Z,39.59
2022-08-15T12:12:59.660Z,39.91
2022-08-15T12:13:59.681Z,39.59
2022-08-15T12:14:59.613Z,39.91
2022-08-15T12:15:59.607Z,36.69
2022-08-15T12:17:02.937Z,40.56
2022-08-15T12:18:07.729Z,39.91
2022-08-15T12:19:06.515Z,38.62
2022-08-15T12:20:26.756Z,39.91
2022-08-15T12:21:00.926Z,39.27
2022-08-15T12:22:44.913Z,39.91
2022-08-15T12:23:04.892Z,38.30
2022-08-15T12:24:02.326Z,42.17
2022-08-15T12:24:59.567Z,40.56
2022-08-15T12:25:59.488Z,42.81
2022-08-15T12:27:03.077Z,39.59
2022-08-15T12:28:00.487Z,40.56
2022-08-15T12:29:00.454Z,38.30
2022-08-15T12:29:59.505Z,40.56
2022-08-15T12:30:59.425Z,43.13
2022-08-15T12:31:59.427Z,40.88
2022-08-15T12:33:01.073Z,41.85
2022-08-15T12:33:59.430Z,40.88
2022-08-15T12:34:59.628Z,40.88
2022-08-15T12:37:01.877Z,40.88
2022-08-15T12:37:04.604Z,40.88
2022-08-15T12:38:00.447Z,40.56
2022-08-15T12:38:59.342Z,39.91
2022-08-15T12:39:59.357Z,41.20
2022-08-15T12:42:44.744Z,39.27
2022-08-15T12:42:55.910Z,41.85
2022-08-15T12:43:00.972Z,40.88
2022-08-15T12:43:59.665Z,40.88
2022-08-15T12:44:59.311Z,42.17
2022-08-15T12:45:59.274Z,38.62
2022-08-15T12:46:59.269Z,40.56
2022-08-15T12:48:06.000Z,41.20
2022-08-15T12:49:00.223Z,39.27
2022-08-15T12:49:59.221Z,42.49
2022-08-15T12:50:59.201Z,41.85
2022-08-15T12:51:59.201Z,42.81
2022-08-15T12:52:59.187Z,41.85
2022-08-15T12:53:59.221Z,42.17
2022-08-15T12:55:01.088Z,42.81
2022-08-15T12:55:59.187Z,40.56